sensor_id;sensor_type;location;lat;lon;timestamp;P1;durP1;ratioP1;P2;durP2;ratioP2
3971;SDS011;2000;47.572;14.202;2023-04-24T00:01:07;8.40;;;4.40;;
3971;SDS011;2000;47.572;14.202;2023-04-24T00:03:34;4.27;;;3.73;;
3971;SDS011;2000;47.572;14.202;2023-04-24T00:06:01;8.40;;;5.43;;
3971;SDS011;2000;47.572;14.202;2023-04-24T00:08:29;10.67;;;6.03;;
3971;SDS011;2000;47.572;14.202;2023-04-24T00:10:56;9.53;;;5.20;;
3971;SDS011;2000;47.572;14.202;2023-04-24T00:13:23;8.17;;;4.27;;
3971;SDS011;2000;47.572;14.202;2023-04-24T00:15:50;6.83;;;4.00;;
3971;SDS011;2000;47.572;14.202;2023-04-24T00:18:17;3.50;;;3.20;;
3971;SDS011;2000;47.572;14.202;2023-04-24T00:20:44;6.37;;;3.60;;
3971;SDS011;2000;47.572;14.202;2023-04-24T00:23:11;7.20;;;4.23;;
3971;SDS011;2000;47.572;14.202;2023-04-24T00:25:38;7.77;;;5.37;;
3971;SDS011;2000;47.572;14.202;2023-04-24T00:28:04;7.60;;;5.60;;
3971;SDS011;2000;47.572;14.202;2023-04-24T00:30:31;10.77;;;6.70;;
3971;SDS011;2000;47.572;14.202;2023-04-24T00:32:58;10.40;;;6.27;;
3971;SDS011;2000;47.572;14.202;2023-04-24T00:35:25;7.33;;;6.10;;
3971;SDS011;2000;47.572;14.202;2023-04-24T00:37:52;8.43;;;6.33;;
3971;SDS011;2000;47.572;14.202;2023-04-24T00:40:19;8.90;;;6.50;;
3971;SDS011;2000;47.572;14.202;2023-04-24T00:42:45;8.20;;;6.43;;
3971;SDS011;2000;47.572;14.202;2023-04-24T00:45:12;13.13;;;7.40;;
3971;SDS011;2000;47.572;14.202;2023-04-24T00:47:39;8.77;;;5.63;;
3971;SDS011;2000;47.572;14.202;2023-04-24T00:50:08;7.00;;;5.70;;
3971;SDS011;2000;47.572;14.202;2023-04-24T00:52:35;16.37;;;6.27;;
3971;SDS011;2000;47.572;14.202;2023-04-24T00:55:02;11.40;;;6.13;;
3971;SDS011;2000;47.572;14.202;2023-04-24T00:57:29;11.23;;;6.57;;
3971;SDS011;2000;47.572;14.202;2023-04-24T00:59:56;9.93;;;5.87;;
3971;SDS011;2000;47.572;14.202;2023-04-24T01:02:24;19.90;;;7.30;;
3971;SDS011;2000;47.572;14.202;2023-04-24T01:04:51;12.80;;;6.90;;
3971;SDS011;2000;47.572;14.202;2023-04-24T01:07:21;8.43;;;6.50;;
3971;SDS011;2000;47.572;14.202;2023-04-24T01:09:48;14.70;;;7.07;;
3971;SDS011;2000;47.572;14.202;2023-04-24T01:12:17;9.43;;;5.63;;
3971;SDS011;2000;47.572;14.202;2023-04-24T01:14:45;7.93;;;5.07;;
3971;SDS011;2000;47.572;14.202;2023-04-24T01:17:12;4.70;;;3.63;;
3971;SDS011;2000;47.572;14.202;2023-04-24T01:19:38;10.93;;;4.80;;
3971;SDS011;2000;47.572;14.202;2023-04-24T01:22:08;8.43;;;4.57;;
3971;SDS011;2000;47.572;14.202;2023-04-24T01:24:42;7.63;;;4.63;;
3971;SDS011;2000;47.572;14.202;2023-04-24T01:27:09;9.27;;;5.07;;
3971;SDS011;2000;47.572;14.202;2023-04-24T01:29:36;11.43;;;5.73;;
3971;SDS011;2000;47.572;14.202;2023-04-24T01:32:04;13.50;;;6.00;;
3971;SDS011;2000;47.572;14.202;2023-04-24T01:34:31;13.57;;;6.63;;
3971;SDS011;2000;47.572;14.202;2023-04-24T01:36:58;15.90;;;6.13;;
3971;SDS011;2000;47.572;14.202;2023-04-24T01:39:25;9.13;;;6.30;;
3971;SDS011;2000;47.572;14.202;2023-04-24T01:41:54;6.13;;;4.90;;
3971;SDS011;2000;47.572;14.202;2023-04-24T01:44:22;9.57;;;5.77;;
3971;SDS011;2000;47.572;14.202;2023-04-24T01:46:49;25.57;;;6.90;;
3971;SDS011;2000;47.572;14.202;2023-04-24T01:49:17;8.40;;;5.00;;
3971;SDS011;2000;47.572;14.202;2023-04-24T01:51:44;12.23;;;5.87;;
3971;SDS011;2000;47.572;14.202;2023-04-24T01:54:11;8.80;;;5.63;;
3971;SDS011;2000;47.572;14.202;2023-04-24T01:56:41;11.07;;;5.20;;
3971;SDS011;2000;47.572;14.202;2023-04-24T01:59:09;10.47;;;4.37;;
3971;SDS011;2000;47.572;14.202;2023-04-24T02:01:37;7.67;;;4.27;;
3971;SDS011;2000;47.572;14.202;2023-04-24T02:04:05;7.00;;;3.63;;
3971;SDS011;2000;47.572;14.202;2023-04-24T02:06:33;5.20;;;3.70;;
3971;SDS011;2000;47.572;14.202;2023-04-24T02:09:00;4.10;;;3.40;;
3971;SDS011;2000;47.572;14.202;2023-04-24T02:11:27;7.17;;;4.50;;
3971;SDS011;2000;47.572;14.202;2023-04-24T02:13:54;6.13;;;4.57;;
3971;SDS011;2000;47.572;14.202;2023-04-24T02:16:21;7.47;;;4.90;;
3971;SDS011;2000;47.572;14.202;2023-04-24T02:18:48;9.53;;;4.93;;
3971;SDS011;2000;47.572;14.202;2023-04-24T02:21:14;8.03;;;5.30;;
3971;SDS011;2000;47.572;14.202;2023-04-24T02:23:42;24.77;;;5.67;;
3971;SDS011;2000;47.572;14.202;2023-04-24T02:26:09;13.53;;;5.20;;
3971;SDS011;2000;47.572;14.202;2023-04-24T02:28:36;6.40;;;5.00;;
3971;SDS011;2000;47.572;14.202;2023-04-24T02:31:02;11.20;;;5.23;;
3971;SDS011;2000;47.572;14.202;2023-04-24T02:33:29;8.30;;;5.00;;
3971;SDS011;2000;47.572;14.202;2023-04-24T02:35:56;10.73;;;5.27;;
3971;SDS011;2000;47.572;14.202;2023-04-24T02:38:23;6.83;;;5.27;;
3971;SDS011;2000;47.572;14.202;2023-04-24T02:40:50;16.60;;;5.20;;
3971;SDS011;2000;47.572;14.202;2023-04-24T02:43:16;6.73;;;5.30;;
3971;SDS011;2000;47.572;14.202;2023-04-24T02:45:43;8.53;;;5.03;;
3971;SDS011;2000;47.572;14.202;2023-04-24T02:48:10;11.13;;;4.70;;
3971;SDS011;2000;47.572;14.202;2023-04-24T02:50:37;7.03;;;4.73;;
3971;SDS011;2000;47.572;14.202;2023-04-24T02:53:04;6.70;;;4.70;;
3971;SDS011;2000;47.572;14.202;2023-04-24T02:55:31;5.53;;;4.90;;
3971;SDS011;2000;47.572;14.202;2023-04-24T02:57:58;11.37;;;4.77;;
3971;SDS011;2000;47.572;14.202;2023-04-24T03:00:25;8.60;;;5.67;;
3971;SDS011;2000;47.572;14.202;2023-04-24T03:02:51;9.03;;;5.40;;
3971;SDS011;2000;47.572;14.202;2023-04-24T03:05:19;5.03;;;4.40;;
3971;SDS011;2000;47.572;14.202;2023-04-24T03:07:46;4.90;;;4.47;;
3971;SDS011;2000;47.572;14.202;2023-04-24T03:10:13;7.23;;;5.53;;
3971;SDS011;2000;47.572;14.202;2023-04-24T03:12:40;7.50;;;5.60;;
3971;SDS011;2000;47.572;14.202;2023-04-24T03:15:07;7.87;;;6.03;;
3971;SDS011;2000;47.572;14.202;2023-04-24T03:17:34;10.13;;;5.80;;
3971;SDS011;2000;47.572;14.202;2023-04-24T03:20:01;10.83;;;7.20;;
3971;SDS011;2000;47.572;14.202;2023-04-24T03:22:28;9.90;;;6.53;;
3971;SDS011;2000;47.572;14.202;2023-04-24T03:24:55;12.00;;;7.50;;
3971;SDS011;2000;47.572;14.202;2023-04-24T03:27:22;10.00;;;7.80;;
3971;SDS011;2000;47.572;14.202;2023-04-24T03:29:49;11.83;;;6.93;;
3971;SDS011;2000;47.572;14.202;2023-04-24T03:32:22;12.07;;;8.30;;
3971;SDS011;2000;47.572;14.202;2023-04-24T03:34:49;13.93;;;8.20;;
3971;SDS011;2000;47.572;14.202;2023-04-24T03:37:16;8.50;;;7.23;;
3971;SDS011;2000;47.572;14.202;2023-04-24T03:39:43;11.83;;;8.33;;
3971;SDS011;2000;47.572;14.202;2023-04-24T03:42:10;11.00;;;6.40;;
3971;SDS011;2000;47.572;14.202;2023-04-24T03:44:37;12.07;;;7.57;;
3971;SDS011;2000;47.572;14.202;2023-04-24T03:47:04;21.60;;;8.63;;
3971;SDS011;2000;47.572;14.202;2023-04-24T03:49:31;14.03;;;8.10;;
3971;SDS011;2000;47.572;14.202;2023-04-24T03:51:58;15.20;;;8.13;;
3971;SDS011;2000;47.572;14.202;2023-04-24T03:54:24;11.17;;;8.10;;
3971;SDS011;2000;47.572;14.202;2023-04-24T03:56:51;14.20;;;9.53;;
3971;SDS011;2000;47.572;14.202;2023-04-24T03:59:18;11.23;;;7.87;;
3971;SDS011;2000;47.572;14.202;2023-04-24T04:01:45;11.77;;;8.53;;
3971;SDS011;2000;47.572;14.202;2023-04-24T04:04:12;14.17;;;7.13;;
3971;SDS011;2000;47.572;14.202;2023-04-24T04:06:39;10.70;;;7.53;;
3971;SDS011;2000;47.572;14.202;2023-04-24T04:09:06;9.53;;;6.93;;
3971;SDS011;2000;47.572;14.202;2023-04-24T04:11:33;12.90;;;8.73;;
3971;SDS011;2000;47.572;14.202;2023-04-24T04:14:01;11.10;;;7.40;;
3971;SDS011;2000;47.572;14.202;2023-04-24T04:16:28;13.80;;;8.10;;
3971;SDS011;2000;47.572;14.202;2023-04-24T04:18:55;11.97;;;7.70;;
3971;SDS011;2000;47.572;14.202;2023-04-24T04:21:22;13.20;;;7.70;;
3971;SDS011;2000;47.572;14.202;2023-04-24T04:23:49;9.27;;;7.33;;
3971;SDS011;2000;47.572;14.202;2023-04-24T04:26:15;7.63;;;5.80;;
3971;SDS011;2000;47.572;14.202;2023-04-24T04:28:42;8.37;;;6.40;;
3971;SDS011;2000;47.572;14.202;2023-04-24T04:31:11;10.70;;;6.53;;
3971;SDS011;2000;47.572;14.202;2023-04-24T04:33:37;9.87;;;6.90;;
3971;SDS011;2000;47.572;14.202;2023-04-24T04:36:05;11.30;;;6.60;;
3971;SDS011;2000;47.572;14.202;2023-04-24T04:38:32;7.13;;;5.37;;
3971;SDS011;2000;47.572;14.202;2023-04-24T04:40:59;7.17;;;5.80;;
3971;SDS011;2000;47.572;14.202;2023-04-24T04:43:26;13.10;;;6.70;;
3971;SDS011;2000;47.572;14.202;2023-04-24T04:45:53;6.63;;;5.17;;
3971;SDS011;2000;47.572;14.202;2023-04-24T04:48:21;8.33;;;5.50;;
3971;SDS011;2000;47.572;14.202;2023-04-24T04:50:48;14.23;;;6.73;;
3971;SDS011;2000;47.572;14.202;2023-04-24T04:53:15;11.80;;;6.20;;
3971;SDS011;2000;47.572;14.202;2023-04-24T04:55:42;10.20;;;6.47;;
3971;SDS011;2000;47.572;14.202;2023-04-24T04:58:08;7.00;;;6.00;;
3971;SDS011;2000;47.572;14.202;2023-04-24T05:00:35;7.73;;;6.13;;
3971;SDS011;2000;47.572;14.202;2023-04-24T05:03:03;5.57;;;5.03;;
3971;SDS011;2000;47.572;14.202;2023-04-24T05:05:45;7.77;;;5.53;;
3971;SDS011;2000;47.572;14.202;2023-04-24T05:08:12;7.50;;;3.80;;
3971;SDS011;2000;47.572;14.202;2023-04-24T05:10:52;2.33;;;1.90;;
3971;SDS011;2000;47.572;14.202;2023-04-24T05:13:19;1.83;;;1.73;;
3971;SDS011;2000;47.572;14.202;2023-04-24T05:15:57;0.67;;;0.50;;
3971;SDS011;2000;47.572;14.202;2023-04-24T05:18:24;1.10;;;0.67;;
3971;SDS011;2000;47.572;14.202;2023-04-24T05:20:51;1.90;;;0.80;;
3971;SDS011;2000;47.572;14.202;2023-04-24T05:23:17;2.60;;;0.80;;
3971;SDS011;2000;47.572;14.202;2023-04-24T05:25:44;0.60;;;0.60;;
3971;SDS011;2000;47.572;14.202;2023-04-24T05:28:12;2.00;;;0.50;;
3971;SDS011;2000;47.572;14.202;2023-04-24T05:30:39;0.40;;;0.40;;
3971;SDS011;2000;47.572;14.202;2023-04-24T05:33:06;0.40;;;0.40;;
3971;SDS011;2000;47.572;14.202;2023-04-24T05:35:33;0.40;;;0.37;;
3971;SDS011;2000;47.572;14.202;2023-04-24T05:37:59;0.83;;;0.70;;
3971;SDS011;2000;47.572;14.202;2023-04-24T05:40:26;2.47;;;0.60;;
3971;SDS011;2000;47.572;14.202;2023-04-24T05:42:53;0.40;;;0.40;;
3971;SDS011;2000;47.572;14.202;2023-04-24T05:45:20;0.40;;;0.40;;
3971;SDS011;2000;47.572;14.202;2023-04-24T05:47:46;0.30;;;0.30;;
3971;SDS011;2000;47.572;14.202;2023-04-24T05:50:13;0.40;;;0.40;;
3971;SDS011;2000;47.572;14.202;2023-04-24T05:52:40;0.60;;;0.30;;
3971;SDS011;2000;47.572;14.202;2023-04-24T05:55:07;2.00;;;0.40;;
3971;SDS011;2000;47.572;14.202;2023-04-24T05:57:34;0.60;;;0.50;;
3971;SDS011;2000;47.572;14.202;2023-04-24T06:00:01;0.30;;;0.20;;
3971;SDS011;2000;47.572;14.202;2023-04-24T06:02:28;0.43;;;0.43;;
3971;SDS011;2000;47.572;14.202;2023-04-24T06:04:59;1.10;;;0.53;;
3971;SDS011;2000;47.572;14.202;2023-04-24T06:07:26;7.03;;;0.40;;
3971;SDS011;2000;47.572;14.202;2023-04-24T06:09:52;0.83;;;0.50;;
3971;SDS011;2000;47.572;14.202;2023-04-24T06:12:19;0.40;;;0.30;;
3971;SDS011;2000;47.572;14.202;2023-04-24T06:14:46;0.30;;;0.20;;
3971;SDS011;2000;47.572;14.202;2023-04-24T06:17:13;0.40;;;0.40;;
3971;SDS011;2000;47.572;14.202;2023-04-24T06:19:40;0.87;;;0.30;;
3971;SDS011;2000;47.572;14.202;2023-04-24T06:22:07;0.30;;;0.30;;
3971;SDS011;2000;47.572;14.202;2023-04-24T06:24:36;0.93;;;0.30;;
3971;SDS011;2000;47.572;14.202;2023-04-24T06:27:03;0.50;;;0.30;;
3971;SDS011;2000;47.572;14.202;2023-04-24T06:29:29;0.30;;;0.30;;
3971;SDS011;2000;47.572;14.202;2023-04-24T06:31:56;0.30;;;0.20;;
3971;SDS011;2000;47.572;14.202;2023-04-24T06:34:23;0.30;;;0.30;;
3971;SDS011;2000;47.572;14.202;2023-04-24T06:36:50;0.50;;;0.37;;
3971;SDS011;2000;47.572;14.202;2023-04-24T06:39:17;0.30;;;0.20;;
3971;SDS011;2000;47.572;14.202;2023-04-24T06:41:44;0.30;;;0.20;;
3971;SDS011;2000;47.572;14.202;2023-04-24T06:44:10;0.30;;;0.30;;
3971;SDS011;2000;47.572;14.202;2023-04-24T06:46:37;0.73;;;0.27;;
3971;SDS011;2000;47.572;14.202;2023-04-24T06:49:07;0.97;;;0.20;;
3971;SDS011;2000;47.572;14.202;2023-04-24T06:51:33;0.30;;;0.20;;
3971;SDS011;2000;47.572;14.202;2023-04-24T06:54:00;0.33;;;0.20;;
3971;SDS011;2000;47.572;14.202;2023-04-24T06:56:28;0.30;;;0.20;;
3971;SDS011;2000;47.572;14.202;2023-04-24T06:58:55;0.30;;;0.30;;
3971;SDS011;2000;47.572;14.202;2023-04-24T07:01:22;0.60;;;0.40;;
3971;SDS011;2000;47.572;14.202;2023-04-24T07:03:49;1.07;;;0.40;;
3971;SDS011;2000;47.572;14.202;2023-04-24T07:06:16;0.30;;;0.20;;
3971;SDS011;2000;47.572;14.202;2023-04-24T07:08:45;0.60;;;0.40;;
3971;SDS011;2000;47.572;14.202;2023-04-24T07:11:12;0.30;;;0.30;;
3971;SDS011;2000;47.572;14.202;2023-04-24T07:13:39;0.20;;;0.20;;
3971;SDS011;2000;47.572;14.202;2023-04-24T07:16:08;0.57;;;0.20;;
3971;SDS011;2000;47.572;14.202;2023-04-24T07:18:36;0.20;;;0.20;;
3971;SDS011;2000;47.572;14.202;2023-04-24T07:21:03;0.20;;;0.20;;
3971;SDS011;2000;47.572;14.202;2023-04-24T07:23:30;0.53;;;0.27;;
3971;SDS011;2000;47.572;14.202;2023-04-24T07:25:57;0.30;;;0.20;;
3971;SDS011;2000;47.572;14.202;2023-04-24T07:28:24;0.83;;;0.20;;
3971;SDS011;2000;47.572;14.202;2023-04-24T07:30:51;0.30;;;0.20;;
3971;SDS011;2000;47.572;14.202;2023-04-24T07:33:20;0.30;;;0.23;;
3971;SDS011;2000;47.572;14.202;2023-04-24T07:35:47;0.50;;;0.30;;
3971;SDS011;2000;47.572;14.202;2023-04-24T07:38:14;0.30;;;0.30;;
3971;SDS011;2000;47.572;14.202;2023-04-24T07:40:41;0.50;;;0.30;;
3971;SDS011;2000;47.572;14.202;2023-04-24T07:43:08;0.40;;;0.20;;
3971;SDS011;2000;47.572;14.202;2023-04-24T07:45:35;0.20;;;0.20;;
3971;SDS011;2000;47.572;14.202;2023-04-24T07:48:03;0.30;;;0.20;;
3971;SDS011;2000;47.572;14.202;2023-04-24T07:50:31;0.63;;;0.43;;
3971;SDS011;2000;47.572;14.202;2023-04-24T07:52:58;0.30;;;0.20;;
3971;SDS011;2000;47.572;14.202;2023-04-24T07:55:24;0.40;;;0.20;;
3971;SDS011;2000;47.572;14.202;2023-04-24T07:57:53;0.50;;;0.30;;
3971;SDS011;2000;47.572;14.202;2023-04-24T08:00:20;0.60;;;0.20;;
3971;SDS011;2000;47.572;14.202;2023-04-24T08:02:47;0.57;;;0.20;;
3971;SDS011;2000;47.572;14.202;2023-04-24T08:05:14;0.30;;;0.20;;
3971;SDS011;2000;47.572;14.202;2023-04-24T08:07:42;0.27;;;0.20;;
3971;SDS011;2000;47.572;14.202;2023-04-24T08:10:12;0.50;;;0.20;;
3971;SDS011;2000;47.572;14.202;2023-04-24T08:12:39;0.30;;;0.20;;
3971;SDS011;2000;47.572;14.202;2023-04-24T08:15:07;1.23;;;0.43;;
3971;SDS011;2000;47.572;14.202;2023-04-24T08:17:35;0.30;;;0.20;;
3971;SDS011;2000;47.572;14.202;2023-04-24T08:20:02;0.30;;;0.30;;
3971;SDS011;2000;47.572;14.202;2023-04-24T08:22:31;0.20;;;0.20;;
3971;SDS011;2000;47.572;14.202;2023-04-24T08:24:59;0.30;;;0.20;;
3971;SDS011;2000;47.572;14.202;2023-04-24T08:27:26;1.33;;;0.40;;
3971;SDS011;2000;47.572;14.202;2023-04-24T08:29:53;0.30;;;0.20;;
3971;SDS011;2000;47.572;14.202;2023-04-24T08:32:20;0.30;;;0.20;;
3971;SDS011;2000;47.572;14.202;2023-04-24T08:34:47;0.47;;;0.47;;
3971;SDS011;2000;47.572;14.202;2023-04-24T08:37:15;0.30;;;0.30;;
3971;SDS011;2000;47.572;14.202;2023-04-24T08:39:42;0.50;;;0.40;;
3971;SDS011;2000;47.572;14.202;2023-04-24T08:42:09;8.90;;;0.30;;
3971;SDS011;2000;47.572;14.202;2023-04-24T08:44:37;0.33;;;0.33;;
3971;SDS011;2000;47.572;14.202;2023-04-24T08:47:04;0.50;;;0.30;;
3971;SDS011;2000;47.572;14.202;2023-04-24T08:49:31;0.50;;;0.30;;
3971;SDS011;2000;47.572;14.202;2023-04-24T08:51:58;0.30;;;0.20;;
3971;SDS011;2000;47.572;14.202;2023-04-24T08:54:26;0.50;;;0.23;;
3971;SDS011;2000;47.572;14.202;2023-04-24T08:56:53;1.10;;;0.30;;
3971;SDS011;2000;47.572;14.202;2023-04-24T08:59:21;4.10;;;0.40;;
3971;SDS011;2000;47.572;14.202;2023-04-24T09:01:48;0.40;;;0.23;;
3971;SDS011;2000;47.572;14.202;2023-04-24T09:04:16;1.03;;;0.33;;
3971;SDS011;2000;47.572;14.202;2023-04-24T09:06:46;1.53;;;0.40;;
3971;SDS011;2000;47.572;14.202;2023-04-24T09:09:15;0.30;;;0.20;;
3971;SDS011;2000;47.572;14.202;2023-04-24T09:11:43;3.60;;;0.30;;
3971;SDS011;2000;47.572;14.202;2023-04-24T09:14:11;0.20;;;0.20;;
3971;SDS011;2000;47.572;14.202;2023-04-24T09:16:37;4.67;;;0.30;;
3971;SDS011;2000;47.572;14.202;2023-04-24T09:19:04;1.20;;;0.30;;
3971;SDS011;2000;47.572;14.202;2023-04-24T09:21:32;0.30;;;0.30;;
3971;SDS011;2000;47.572;14.202;2023-04-24T09:24:00;0.30;;;0.20;;
3971;SDS011;2000;47.572;14.202;2023-04-24T09:26:32;0.30;;;0.30;;
3971;SDS011;2000;47.572;14.202;2023-04-24T09:29:00;0.40;;;0.40;;
3971;SDS011;2000;47.572;14.202;2023-04-24T09:31:28;0.30;;;0.20;;
3971;SDS011;2000;47.572;14.202;2023-04-24T09:39:07;0.30;;;0.20;;
3971;SDS011;2000;47.572;14.202;2023-04-24T09:41:34;1.07;;;0.30;;
3971;SDS011;2000;47.572;14.202;2023-04-24T09:44:12;0.40;;;0.40;;
3971;SDS011;2000;47.572;14.202;2023-04-24T09:46:45;0.30;;;0.27;;
3971;SDS011;2000;47.572;14.202;2023-04-24T09:49:13;1.10;;;0.50;;
3971;SDS011;2000;47.572;14.202;2023-04-24T09:51:41;0.40;;;0.20;;
3971;SDS011;2000;47.572;14.202;2023-04-24T09:54:15;1.17;;;0.30;;
3971;SDS011;2000;47.572;14.202;2023-04-24T09:56:44;0.30;;;0.20;;
3971;SDS011;2000;47.572;14.202;2023-04-24T09:59:12;1.43;;;0.20;;
3971;SDS011;2000;47.572;14.202;2023-04-24T10:01:40;0.30;;;0.20;;
3971;SDS011;2000;47.572;14.202;2023-04-24T10:04:15;0.53;;;0.27;;
3971;SDS011;2000;47.572;14.202;2023-04-24T10:06:46;0.30;;;0.20;;
3971;SDS011;2000;47.572;14.202;2023-04-24T10:09:15;0.73;;;0.23;;
3971;SDS011;2000;47.572;14.202;2023-04-24T10:11:43;0.50;;;0.20;;
3971;SDS011;2000;47.572;14.202;2023-04-24T10:14:14;0.30;;;0.30;;
3971;SDS011;2000;47.572;14.202;2023-04-24T10:16:42;0.20;;;0.20;;
3971;SDS011;2000;47.572;14.202;2023-04-24T10:19:10;0.63;;;0.20;;
3971;SDS011;2000;47.572;14.202;2023-04-24T10:21:39;1.53;;;0.20;;
3971;SDS011;2000;47.572;14.202;2023-04-24T10:24:13;0.43;;;0.20;;
3971;SDS011;2000;47.572;14.202;2023-04-24T10:26:42;0.40;;;0.40;;
3971;SDS011;2000;47.572;14.202;2023-04-24T10:29:13;0.50;;;0.40;;
3971;SDS011;2000;47.572;14.202;2023-04-24T10:31:41;0.30;;;0.27;;
3971;SDS011;2000;47.572;14.202;2023-04-24T10:34:12;0.40;;;0.40;;
3971;SDS011;2000;47.572;14.202;2023-04-24T10:36:40;0.60;;;0.60;;
3971;SDS011;2000;47.572;14.202;2023-04-24T10:39:09;0.30;;;0.20;;
3971;SDS011;2000;47.572;14.202;2023-04-24T10:41:38;0.40;;;0.20;;
3971;SDS011;2000;47.572;14.202;2023-04-24T10:44:06;0.50;;;0.50;;
3971;SDS011;2000;47.572;14.202;2023-04-24T10:46:34;0.30;;;0.20;;
3971;SDS011;2000;47.572;14.202;2023-04-24T10:49:07;1.23;;;0.30;;
3971;SDS011;2000;47.572;14.202;2023-04-24T10:51:53;0.20;;;0.20;;
3971;SDS011;2000;47.572;14.202;2023-04-24T10:54:27;0.30;;;0.30;;
3971;SDS011;2000;47.572;14.202;2023-04-24T10:59:49;0.50;;;0.40;;
3971;SDS011;2000;47.572;14.202;2023-04-24T11:02:18;0.30;;;0.20;;
3971;SDS011;2000;47.572;14.202;2023-04-24T11:04:45;0.70;;;0.50;;
3971;SDS011;2000;47.572;14.202;2023-04-24T11:07:12;0.30;;;0.20;;
3971;SDS011;2000;47.572;14.202;2023-04-24T11:09:39;0.53;;;0.53;;
3971;SDS011;2000;47.572;14.202;2023-04-24T11:12:10;0.40;;;0.20;;
3971;SDS011;2000;47.572;14.202;2023-04-24T11:17:37;0.30;;;0.20;;
3971;SDS011;2000;47.572;14.202;2023-04-24T11:20:07;0.73;;;0.30;;
3971;SDS011;2000;47.572;14.202;2023-04-24T11:22:53;0.90;;;0.30;;
3971;SDS011;2000;47.572;14.202;2023-04-24T11:25:22;0.43;;;0.30;;
3971;SDS011;2000;47.572;14.202;2023-04-24T11:27:49;3.60;;;0.30;;
3971;SDS011;2000;47.572;14.202;2023-04-24T11:30:19;0.20;;;0.20;;
3971;SDS011;2000;47.572;14.202;2023-04-24T11:32:47;0.20;;;0.20;;
3971;SDS011;2000;47.572;14.202;2023-04-24T11:35:17;0.30;;;0.20;;
3971;SDS011;2000;47.572;14.202;2023-04-24T11:37:48;1.53;;;0.20;;
3971;SDS011;2000;47.572;14.202;2023-04-24T11:40:20;1.90;;;0.40;;
3971;SDS011;2000;47.572;14.202;2023-04-24T11:42:49;0.30;;;0.20;;
3971;SDS011;2000;47.572;14.202;2023-04-24T11:45:18;0.20;;;0.20;;
3971;SDS011;2000;47.572;14.202;2023-04-24T11:47:48;0.30;;;0.20;;
3971;SDS011;2000;47.572;14.202;2023-04-24T11:50:16;0.30;;;0.20;;
3971;SDS011;2000;47.572;14.202;2023-04-24T11:52:44;0.50;;;0.30;;
3971;SDS011;2000;47.572;14.202;2023-04-24T11:57:46;0.83;;;0.30;;
3971;SDS011;2000;47.572;14.202;2023-04-24T12:00:18;0.30;;;0.20;;
3971;SDS011;2000;47.572;14.202;2023-04-24T12:02:47;0.57;;;0.20;;
3971;SDS011;2000;47.572;14.202;2023-04-24T12:05:21;0.30;;;0.20;;
3971;SDS011;2000;47.572;14.202;2023-04-24T12:07:54;0.40;;;0.30;;
3971;SDS011;2000;47.572;14.202;2023-04-24T12:10:21;0.87;;;0.33;;
3971;SDS011;2000;47.572;14.202;2023-04-24T12:12:50;2.07;;;1.10;;
3971;SDS011;2000;47.572;14.202;2023-04-24T12:15:21;1.97;;;1.23;;
3971;SDS011;2000;47.572;14.202;2023-04-24T12:17:50;1.27;;;1.17;;
3971;SDS011;2000;47.572;14.202;2023-04-24T12:20:22;0.80;;;0.73;;
3971;SDS011;2000;47.572;14.202;2023-04-24T12:22:52;0.43;;;0.30;;
3971;SDS011;2000;47.572;14.202;2023-04-24T12:25:33;0.30;;;0.30;;
3971;SDS011;2000;47.572;14.202;2023-04-24T12:30:35;0.30;;;0.30;;
3971;SDS011;2000;47.572;14.202;2023-04-24T12:33:05;0.40;;;0.30;;
3971;SDS011;2000;47.572;14.202;2023-04-24T12:35:32;0.83;;;0.30;;
3971;SDS011;2000;47.572;14.202;2023-04-24T12:38:10;0.83;;;0.40;;
3971;SDS011;2000;47.572;14.202;2023-04-24T12:40:39;0.30;;;0.20;;
3971;SDS011;2000;47.572;14.202;2023-04-24T12:43:15;0.37;;;0.37;;
3971;SDS011;2000;47.572;14.202;2023-04-24T12:45:42;0.30;;;0.20;;
3971;SDS011;2000;47.572;14.202;2023-04-24T12:48:10;0.30;;;0.27;;
3971;SDS011;2000;47.572;14.202;2023-04-24T12:50:37;0.30;;;0.20;;
3971;SDS011;2000;47.572;14.202;2023-04-24T12:53:05;0.70;;;0.30;;
3971;SDS011;2000;47.572;14.202;2023-04-24T12:55:32;1.37;;;0.30;;
3971;SDS011;2000;47.572;14.202;2023-04-24T12:57:59;0.33;;;0.27;;
3971;SDS011;2000;47.572;14.202;2023-04-24T13:00:26;1.17;;;0.37;;
3971;SDS011;2000;47.572;14.202;2023-04-24T13:02:53;1.40;;;0.30;;
3971;SDS011;2000;47.572;14.202;2023-04-24T13:05:20;1.57;;;0.73;;
3971;SDS011;2000;47.572;14.202;2023-04-24T13:07:50;0.67;;;0.30;;
3971;SDS011;2000;47.572;14.202;2023-04-24T13:10:17;5.40;;;0.50;;
3971;SDS011;2000;47.572;14.202;2023-04-24T13:12:43;1.27;;;0.87;;
3971;SDS011;2000;47.572;14.202;2023-04-24T13:15:12;2.63;;;0.70;;
3971;SDS011;2000;47.572;14.202;2023-04-24T13:17:39;0.57;;;0.40;;
3971;SDS011;2000;47.572;14.202;2023-04-24T13:20:06;2.57;;;0.80;;
3971;SDS011;2000;47.572;14.202;2023-04-24T13:22:33;0.67;;;0.53;;
3971;SDS011;2000;47.572;14.202;2023-04-24T13:25:00;0.50;;;0.40;;
3971;SDS011;2000;47.572;14.202;2023-04-24T13:27:27;0.50;;;0.20;;
3971;SDS011;2000;47.572;14.202;2023-04-24T13:29:54;0.67;;;0.30;;
3971;SDS011;2000;47.572;14.202;2023-04-24T13:32:21;0.30;;;0.30;;
3971;SDS011;2000;47.572;14.202;2023-04-24T13:34:48;1.50;;;0.60;;
3971;SDS011;2000;47.572;14.202;2023-04-24T13:37:14;2.73;;;0.50;;
3971;SDS011;2000;47.572;14.202;2023-04-24T13:39:41;0.40;;;0.37;;
3971;SDS011;2000;47.572;14.202;2023-04-24T13:42:08;0.43;;;0.40;;
3971;SDS011;2000;47.572;14.202;2023-04-24T13:44:35;0.80;;;0.30;;
3971;SDS011;2000;47.572;14.202;2023-04-24T13:47:02;0.53;;;0.40;;
3971;SDS011;2000;47.572;14.202;2023-04-24T13:49:29;0.80;;;0.37;;
3971;SDS011;2000;47.572;14.202;2023-04-24T13:51:56;0.30;;;0.30;;
3971;SDS011;2000;47.572;14.202;2023-04-24T13:54:23;0.30;;;0.27;;
3971;SDS011;2000;47.572;14.202;2023-04-24T13:56:52;4.90;;;0.47;;
3971;SDS011;2000;47.572;14.202;2023-04-24T13:59:19;0.30;;;0.20;;
3971;SDS011;2000;47.572;14.202;2023-04-24T14:01:47;0.60;;;0.40;;
3971;SDS011;2000;47.572;14.202;2023-04-24T14:04:14;0.30;;;0.30;;
3971;SDS011;2000;47.572;14.202;2023-04-24T14:06:42;0.63;;;0.40;;
3971;SDS011;2000;47.572;14.202;2023-04-24T14:09:09;0.90;;;0.47;;
3971;SDS011;2000;47.572;14.202;2023-04-24T14:11:36;0.30;;;0.30;;
3971;SDS011;2000;47.572;14.202;2023-04-24T14:14:03;0.60;;;0.60;;
3971;SDS011;2000;47.572;14.202;2023-04-24T14:16:30;1.07;;;0.50;;
3971;SDS011;2000;47.572;14.202;2023-04-24T14:18:57;1.80;;;0.43;;
3971;SDS011;2000;47.572;14.202;2023-04-24T14:21:24;0.60;;;0.40;;
3971;SDS011;2000;47.572;14.202;2023-04-24T14:23:51;0.67;;;0.50;;
3971;SDS011;2000;47.572;14.202;2023-04-24T14:26:19;0.83;;;0.83;;
3971;SDS011;2000;47.572;14.202;2023-04-24T14:28:46;0.53;;;0.53;;
3971;SDS011;2000;47.572;14.202;2023-04-24T14:31:12;0.50;;;0.47;;
3971;SDS011;2000;47.572;14.202;2023-04-24T14:33:39;2.53;;;0.70;;
3971;SDS011;2000;47.572;14.202;2023-04-24T14:36:06;1.17;;;0.50;;
3971;SDS011;2000;47.572;14.202;2023-04-24T14:38:33;0.60;;;0.60;;
3971;SDS011;2000;47.572;14.202;2023-04-24T14:41:01;2.37;;;0.33;;
3971;SDS011;2000;47.572;14.202;2023-04-24T14:43:38;1.80;;;0.70;;
3971;SDS011;2000;47.572;14.202;2023-04-24T14:46:05;0.53;;;0.47;;
3971;SDS011;2000;47.572;14.202;2023-04-24T14:48:32;1.03;;;0.40;;
3971;SDS011;2000;47.572;14.202;2023-04-24T14:50:58;0.87;;;0.60;;
3971;SDS011;2000;47.572;14.202;2023-04-24T14:53:25;0.93;;;0.60;;
3971;SDS011;2000;47.572;14.202;2023-04-24T14:55:52;1.40;;;0.90;;
3971;SDS011;2000;47.572;14.202;2023-04-24T14:58:19;1.10;;;0.83;;
3971;SDS011;2000;47.572;14.202;2023-04-24T15:00:46;1.10;;;0.43;;
3971;SDS011;2000;47.572;14.202;2023-04-24T15:03:16;0.70;;;0.47;;
3971;SDS011;2000;47.572;14.202;2023-04-24T15:05:44;2.73;;;0.80;;
3971;SDS011;2000;47.572;14.202;2023-04-24T15:08:11;1.00;;;0.70;;
3971;SDS011;2000;47.572;14.202;2023-04-24T15:10:38;3.87;;;1.27;;
3971;SDS011;2000;47.572;14.202;2023-04-24T15:13:04;0.93;;;0.70;;
3971;SDS011;2000;47.572;14.202;2023-04-24T15:15:31;1.23;;;0.60;;
3971;SDS011;2000;47.572;14.202;2023-04-24T15:17:58;0.77;;;0.40;;
3971;SDS011;2000;47.572;14.202;2023-04-24T15:20:25;1.00;;;0.70;;